Main page
METAR-TAF:

METAR-TAF

Airports :

Campbeltown, Scotland

Campbeltown Airport

latitude: 55-26-14N, longitude: 005-41-11W, elevation: 13 m

Current weather observation

The report was made 21 minutes ago, at 08:20 UTC
Wind 10 kt from the West/Southwest
Temperature 12°C
Humidity 88%
Pressure 1017 hPa
Visibility 10 km or more
Few clouds at a height of 2000 ft

METAR: EGEC 230820Z 25010KT 9999 FEW020 12/10 Q1017

Time: 09:41 (08:41 UTC)

Forecast

The report was made 42 minutes ago, at 07:59 UTC
Forecast valid from 23 at 09 UTC to 23 at 17 UTC
Wind 9 kt from the West/Southwest
Visibility 10 km or more
Few clouds at a height of 2000 ft
Probability 30% :
Temporary
from 23 at 15 UTC to 23 at 17 UTC
Visibility: 7000 m
light rain

TAF: EGEC 230759Z 2309/2317 24009KT 9999 FEW020 PROB30 TEMPO 2315/2317 7000 -RA

Weather observations and forecasts of more than 4000 airports (METAR and TAF reports).

The available stations are represented by yellow and red dots on the map.

Hover mouse over dot to see the name of the station.

Then click to see weather observations and forecasts.

To change the map : click on the green buttons with a black cross to zoom in, on the green button with a dash to zoom out, or on the green arrows for adjacent maps.


METAR-TAF: